Time;durP1;ratioP1;P1;durP2;ratioP2;P2;SDS_P1;SDS_P2;PMS_P1;PMS_P2;Temp;Humidity;BMP_temperature;BMP_pressure;BME280_temperature;BME280_humidity;BME280_pressure;Samples;Min_cycle;Max_cycle;Signal;HPM_P1;HPM_P2
2023/01/06 00:00:34;;;;;;;4.10;2.10;;;;;;;9.31;70.04;99140.64;1833934;78;21010;-76
2023/01/06 00:03:00;;;;;;;4.12;1.80;;;;;;;9.33;69.97;99150.49;1771212;80;21086;-76
2023/01/06 00:05:28;;;;;;;3.55;2.12;;;;;;;9.27;70.08;99154.28;1833502;78;21010;-76
2023/01/06 00:07:55;;;;;;;2.90;1.77;;;;;;;9.26;70.12;99156.70;1770773;81;21878;-75
2023/01/06 00:10:22;;;;;;;4.05;1.82;;;;;;;9.25;70.21;99159.91;1833776;78;20944;-77
2023/01/06 00:12:49;;;;;;;3.60;1.80;;;;;;;9.27;70.28;99160.94;1770909;81;21027;-77
2023/01/06 00:15:17;;;;;;;4.15;1.75;;;;;;;9.26;70.36;99158.82;1833761;78;21035;-77
2023/01/06 00:17:43;;;;;;;3.25;1.70;;;;;;;9.27;70.32;99162.28;1771015;81;21041;-76
2023/01/06 00:20:12;;;;;;;4.50;1.90;;;;;;;9.25;70.35;99171.11;1833916;78;21555;-76
2023/01/06 00:22:39;;;;;;;3.02;1.65;;;;;;;9.23;70.49;99179.37;1768619;81;20931;-75
2023/01/06 00:25:11;;;;;;;2.50;1.57;;;;;;;9.19;70.60;99190.33;1817164;79;20976;-77
2023/01/06 00:27:39;;;;;;;3.20;1.72;;;;;;;9.14;70.84;99180.50;1765761;81;21506;-78
2023/01/06 00:30:08;;;;;;;3.40;1.70;;;;;;;9.12;71.07;99179.22;1765829;81;21493;-76
2023/01/06 00:32:38;;;;;;;2.55;1.40;;;;;;;9.11;71.20;99180.27;1765924;81;21117;-77
2023/01/06 00:35:05;;;;;;;3.33;1.80;;;;;;;9.07;71.39;99184.58;1819442;78;21505;-77
2023/01/06 00:37:32;;;;;;;2.98;1.50;;;;;;;9.04;71.56;99181.93;1834008;78;20990;-76
2023/01/06 00:39:59;;;;;;;2.95;1.52;;;;;;;9.03;71.74;99189.67;1826106;78;20945;-76
2023/01/06 00:42:25;;;;;;;3.67;1.70;;;;;;;9.01;71.88;99187.81;1819004;78;21578;-77
2023/01/06 00:44:53;;;;;;;3.87;1.35;;;;;;;8.95;72.06;99194.28;1764933;81;21807;-76
2023/01/06 00:47:20;;;;;;;4.80;1.80;;;;;;;8.88;72.26;99203.92;1765274;81;21541;-76
2023/01/06 00:49:47;;;;;;;3.30;1.50;;;;;;;8.84;72.44;99210.06;1832539;78;21082;-76
2023/01/06 00:52:14;;;;;;;2.98;1.52;;;;;;;8.80;72.57;99209.83;1834454;78;21154;-76
2023/01/06 00:54:41;;;;;;;2.22;1.30;;;;;;;8.78;72.67;99208.52;1834824;77;20995;-78
2023/01/06 00:57:09;;;;;;;3.33;1.62;;;;;;;8.73;72.81;99208.56;1833437;78;22087;-76
2023/01/06 00:59:37;;;;;;;3.12;1.40;;;;;;;8.69;72.87;99214.44;1771013;81;21573;-76
2023/01/06 01:02:03;;;;;;;3.42;1.50;;;;;;;8.68;72.91;99219.48;1834025;78;21031;-77
2023/01/06 01:04:30;;;;;;;3.37;1.27;;;;;;;8.70;72.93;99220.55;1770870;81;20983;-76
2023/01/06 01:06:58;;;;;;;2.98;1.40;;;;;;;8.72;72.93;99222.41;1833967;78;20999;-77
2023/01/06 01:09:28;;;;;;;2.75;1.40;;;;;;;8.71;72.93;99225.34;1770605;81;21549;-76
2023/01/06 01:12:13;;;;;;;2.98;1.30;;;;;;;8.69;72.94;99215.77;1770617;81;21002;-77
2023/01/06 01:14:49;;;;;;;3.12;1.40;;;;;;;8.68;72.90;99223.48;1833462;78;21409;-77
2023/01/06 01:17:23;;;;;;;3.42;1.27;;;;;;;8.68;72.91;99226.68;1771050;81;21113;-75
2023/01/06 01:19:53;;;;;;;3.15;1.30;;;;;;;8.67;72.95;99229.09;1769440;81;20955;-77
2023/01/06 01:22:20;;;;;;;2.08;1.17;;;;;;;8.69;72.93;99230.41;1834047;78;21089;-76
2023/01/06 01:24:47;;;;;;;3.22;1.30;;;;;;;8.67;72.91;99231.21;1770711;81;20987;-76
2023/01/06 01:27:14;;;;;;;3.17;1.32;;;;;;;8.66;72.92;99229.63;1833745;78;21352;-77
2023/01/06 01:29:41;;;;;;;2.50;1.10;;;;;;;8.68;72.90;99241.32;1770546;81;21007;-77
2023/01/06 01:32:08;;;;;;;2.37;1.30;;;;;;;8.71;72.86;99239.98;1802037;78;21049;-76
2023/01/06 01:34:34;;;;;;;1.50;0.90;;;;;;;8.75;72.77;99236.48;1770983;81;22190;-76
2023/01/06 01:37:02;;;;;;;2.92;1.10;;;;;;;8.76;72.62;99244.74;1770939;81;21027;-75
2023/01/06 01:39:29;;;;;;;1.82;0.90;;;;;;;8.77;72.54;99255.64;1806171;79;21093;-76
2023/01/06 01:41:58;;;;;;;2.10;1.10;;;;;;;8.79;72.54;99262.83;1830721;78;20944;-77
2023/01/06 01:45:05;;;;;;;1.92;1.02;;;;;;;8.77;72.57;99266.83;1830930;78;21541;-77
2023/01/06 01:47:44;;;;;;;2.45;0.95;;;;;;;8.70;72.53;99269.80;1824329;78;21246;-77
2023/01/06 01:50:42;;;;;;;1.65;0.98;;;;;;;8.59;72.29;99278.93;1817655;79;20995;-78
2023/01/06 01:53:25;;;;;;;1.57;0.95;;;;;;;8.45;72.05;99274.18;1817201;79;21641;-78
2023/01/06 01:55:53;;;;;;;1.57;0.60;;;;;;;8.29;71.93;99291.79;1817325;78;21439;-78
2023/01/06 01:58:32;;;;;;;1.00;0.70;;;;;;;8.11;71.69;99291.33;1766611;81;21042;-75
2023/01/06 02:00:58;;;;;;;1.60;0.85;;;;;;;7.97;71.68;99298.30;1798287;79;21407;-76
2023/01/06 02:03:25;;;;;;;1.67;0.90;;;;;;;7.85;71.70;99306.56;1797990;79;20983;-76
2023/01/06 02:05:56;;;;;;;1.87;0.88;;;;;;;7.73;71.62;99314.84;1792927;79;20995;-75
2023/01/06 02:08:33;;;;;;;1.77;0.88;;;;;;;7.62;71.53;99333.70;1817689;79;20955;-77
2023/01/06 02:11:00;;;;;;;2.12;1.00;;;;;;;7.50;71.53;99327.33;1817948;79;21569;-76
2023/01/06 02:13:27;;;;;;;2.70;1.20;;;;;;;7.37;71.36;99333.17;1795701;80;21232;-76
2023/01/06 02:16:03;;;;;;;2.15;1.27;;;;;;;7.26;71.06;99352.30;1814483;79;20984;-76
2023/01/06 02:18:53;;;;;;;2.85;1.70;;;;;;;7.15;70.84;99362.66;1798123;79;21502;-76
2023/01/06 02:21:34;;;;;;;4.22;1.80;;;;;;;7.05;70.77;99362.89;1810103;78;20944;-76
2023/01/06 02:24:34;;;;;;;3.12;1.98;;;;;;;6.99;70.68;99373.23;1796472;79;21503;-77
2023/01/06 02:27:38;;;;;;;2.27;1.30;;;;;;;6.99;70.58;99382.52;1796725;79;21015;-76
2023/01/06 02:30:25;;;;;;;3.58;1.90;;;;;;;6.98;70.43;99394.75;1795181;79;21027;-76
2023/01/06 02:33:06;;;;;;;3.80;2.10;;;;;;;6.92;70.29;99397.11;1805888;78;21040;-76
2023/01/06 02:35:51;;;;;;;4.30;2.67;;;;;;;6.88;70.28;99407.45;1830874;77;21015;-76
2023/01/06 02:38:52;;;;;;;3.42;1.95;;;;;;;6.87;70.36;99418.31;1826640;78;21534;-76
2023/01/06 02:41:42;;;;;;;2.42;1.60;;;;;;;6.81;70.34;99419.64;1815891;79;21142;-76
2023/01/06 02:44:32;;;;;;;2.47;1.62;;;;;;;6.68;70.28;99428.08;1815734;79;21047;-76
2023/01/06 02:47:13;;;;;;;2.50;1.55;;;;;;;6.53;70.41;99438.61;1817694;78;20991;-75
2023/01/06 02:50:12;;;;;;;2.45;1.47;;;;;;;6.40;70.54;99449.67;1830834;78;21022;-76
2023/01/06 02:53:03;;;;;;;1.95;1.30;;;;;;;6.29;70.76;99448.29;1830627;78;20935;-77
2023/01/06 02:55:45;;;;;;;2.33;1.42;;;;;;;6.18;71.04;99456.42;1825730;78;21150;-77
2023/01/06 02:58:39;;;;;;;2.50;1.72;;;;;;;5.98;71.64;99480.92;1816064;79;27022;-77
2023/01/06 03:01:32;;;;;;;2.75;1.70;;;;;;;5.98;71.64;99480.92;1816550;79;21019;-77
2023/01/06 03:04:06;;;;;;;1.90;1.40;;;;;;;5.95;71.78;99487.52;1816043;79;20984;-77
2023/01/06 03:06:33;;;;;;;2.00;1.40;;;;;;;5.93;71.83;99498.13;1815831;79;20996;-77
2023/01/06 03:09:00;;;;;;;2.20;1.37;;;;;;;5.87;71.64;99499.36;1788225;79;21411;-77
2023/01/06 03:11:28;;;;;;;2.35;1.37;;;;;;;5.80;71.47;99513.34;1737421;81;20944;-76
2023/01/06 03:14:04;;;;;;;2.05;1.30;;;;;;;5.73;71.45;99519.38;1803333;78;21564;-76
2023/01/06 03:16:32;;;;;;;2.22;1.40;;;;;;;5.68;71.46;99523.81;1759862;81;21054;-76
2023/01/06 03:18:59;;;;;;;1.70;1.17;;;;;;;5.61;71.33;99529.31;1771181;81;21006;-76
2023/01/06 03:21:34;;;;;;;2.65;1.50;;;;;;;5.57;71.09;99530.34;1771184;81;21118;-76
2023/01/06 03:24:00;;;;;;;2.40;1.50;;;;;;;5.52;70.84;99541.39;1770943;81;21101;-76
2023/01/06 03:26:28;;;;;;;1.98;1.30;;;;;;;5.43;70.67;99546.84;1771373;81;20962;-76
2023/01/06 03:28:55;;;;;;;2.20;1.40;;;;;;;5.36;70.69;99553.16;1770656;81;21050;-76
2023/01/06 03:31:56;;;;;;;2.25;1.40;;;;;;;5.35;70.67;99546.77;1771326;81;21089;-78
2023/01/06 03:35:04;;;;;;;2.67;1.70;;;;;;;5.34;70.65;99556.56;1771397;81;21804;-78
2023/01/06 03:37:57;;;;;;;2.90;1.70;;;;;;;5.28;70.48;99566.81;1802701;79;21085;-77
2023/01/06 03:41:01;;;;;;;3.22;2.10;;;;;;;5.23;70.47;99576.03;1771676;81;21019;-77
2023/01/06 03:43:39;;;;;;;3.17;2.27;;;;;;;5.16;70.41;99583.33;1802634;79;21002;-77
2023/01/06 03:46:27;;;;;;;3.65;2.20;;;;;;;5.10;70.33;99586.95;1805548;79;21053;-77
2023/01/06 03:49:14;;;;;;;4.12;2.60;;;;;;;5.02;70.22;99590.83;1800258;79;21442;-77
2023/01/06 03:52:00;;;;;;;4.03;2.60;;;;;;;5.00;70.29;99598.22;1802785;78;21055;-77
2023/01/06 03:54:50;;;;;;;3.72;2.70;;;;;;;4.99;70.39;99623.06;1763013;80;21086;-77
2023/01/06 03:57:24;;;;;;;3.15;2.35;;;;;;;4.98;70.30;99622.80;1802805;79;21022;-78
2023/01/06 04:00:00;;;;;;;3.72;2.62;;;;;;;4.98;70.23;99629.94;1771185;81;20970;-78
2023/01/06 04:02:26;;;;;;;3.75;2.77;;;;;;;4.97;70.20;99628.31;1802839;79;21132;-77
2023/01/06 04:05:17;;;;;;;3.50;2.75;;;;;;;4.94;70.12;99640.20;1743467;81;20955;-78
2023/01/06 04:07:45;;;;;;;4.10;3.20;;;;;;;4.95;70.12;99648.42;1770856;80;21014;-76
2023/01/06 04:10:14;;;;;;;4.00;2.98;;;;;;;4.96;70.10;99656.63;1771246;81;21046;-76
2023/01/06 04:12:42;;;;;;;3.72;3.00;;;;;;;4.97;70.10;99660.90;1771052;81;21070;-76
2023/01/06 04:15:16;;;;;;;4.15;3.20;;;;;;;4.99;69.96;99664.61;1740352;81;21181;-76
2023/01/06 04:17:45;;;;;;;4.47;3.33;;;;;;;4.98;69.82;99677.57;1770880;80;21517;-76
2023/01/06 04:20:19;;;;;;;4.35;3.30;;;;;;;4.97;69.74;99688.69;1778177;79;21090;-77
2023/01/06 04:22:46;;;;;;;4.37;3.30;;;;;;;4.93;69.60;99698.13;1802336;79;21546;-77
2023/01/06 04:25:13;;;;;;;4.50;3.27;;;;;;;4.91;69.44;99712.13;1770996;81;20971;-76
2023/01/06 04:27:42;;;;;;;4.30;3.50;;;;;;;4.86;69.25;99716.01;1833432;78;21116;-76
2023/01/06 04:30:11;;;;;;;4.05;3.40;;;;;;;4.83;69.16;99721.77;1833790;78;21030;-76
2023/01/06 04:32:38;;;;;;;4.33;3.35;;;;;;;4.80;69.15;99721.73;1833982;77;20975;-77
2023/01/06 04:35:08;;;;;;;4.90;3.70;;;;;;;4.84;69.09;99735.31;1833995;78;21506;-77
2023/01/06 04:37:36;;;;;;;5.08;3.85;;;;;;;4.81;68.99;99735.26;1822382;78;20982;-79
2023/01/06 04:40:03;;;;;;;5.80;4.53;;;;;;;4.75;68.97;99736.20;1771438;81;21070;-77
2023/01/06 04:43:02;;;;;;;6.45;4.90;;;;;;;4.70;69.04;99741.39;1771646;81;20955;-77
2023/01/06 04:44:59;;;;;;;5.90;4.53;;;;;;;4.68;69.17;99751.43;1767744;81;21004;-77
2023/01/06 04:47:25;;;;;;;5.55;4.67;;;;;;;4.69;69.23;99755.67;1771708;79;21015;-77
2023/01/06 04:49:52;;;;;;;5.85;4.72;;;;;;;4.66;69.28;99764.08;1803720;79;20951;-77
2023/01/06 04:52:19;;;;;;;6.72;5.65;;;;;;;4.68;69.31;99776.56;1771815;81;21244;-78
2023/01/06 04:54:45;;;;;;;5.72;4.78;;;;;;;4.67;69.24;99775.77;1774373;79;20966;-77
2023/01/06 04:57:12;;;;;;;6.45;4.92;;;;;;;4.65;69.20;99788.94;1740639;82;21030;-77
2023/01/06 04:59:39;;;;;;;6.78;5.50;;;;;;;4.60;69.09;99799.41;1740082;82;21022;-77
2023/01/06 05:02:06;;;;;;;6.00;5.00;;;;;;;4.55;69.08;99800.12;1740213;82;21150;-78
2023/01/06 05:04:34;;;;;;;7.72;4.85;;;;;;;4.50;68.82;99801.86;1740310;82;21090;-77
2023/01/06 05:07:01;;;;;;;6.08;4.90;;;;;;;4.50;68.71;99808.47;1740108;82;21569;-77
2023/01/06 05:09:28;;;;;;;6.37;4.80;;;;;;;4.50;68.43;99815.08;1740146;82;21058;-77
2023/01/06 05:11:55;;;;;;;7.08;5.25;;;;;;;4.54;68.18;99827.62;1741083;81;20983;-77
2023/01/06 05:14:22;;;;;;;6.70;5.22;;;;;;;4.55;68.03;99829.22;1740181;82;21074;-77
2023/01/06 05:16:49;;;;;;;7.85;5.50;;;;;;;4.59;68.04;99838.80;1740527;82;21693;-77
2023/01/06 05:19:16;;;;;;;6.92;5.50;;;;;;;4.60;68.08;99850.45;1740075;82;21493;-77
2023/01/06 05:21:42;;;;;;;7.17;6.00;;;;;;;4.61;68.05;99858.70;1740240;82;21030;-77
2023/01/06 05:24:09;;;;;;;7.42;6.12;;;;;;;4.60;68.10;99866.33;1739993;82;20998;-77
2023/01/06 05:26:36;;;;;;;7.45;6.47;;;;;;;4.57;68.12;99863.34;1740313;82;21054;-77
2023/01/06 05:29:03;;;;;;;8.30;6.20;;;;;;;4.58;68.12;99884.29;1750760;81;21175;-78
2023/01/06 05:31:29;;;;;;;7.40;6.25;;;;;;;4.57;68.07;99895.09;1770599;81;21066;-77
2023/01/06 05:33:57;;;;;;;7.35;6.40;;;;;;;4.57;68.01;99901.17;1770593;81;21003;-77
2023/01/06 05:36:24;;;;;;;8.85;6.83;;;;;;;4.57;68.01;99900.38;1770896;81;20967;-77
2023/01/06 05:38:53;;;;;;;7.40;6.60;;;;;;;4.54;68.04;99911.42;1770859;81;21415;-78
2023/01/06 05:41:20;;;;;;;8.43;6.42;;;;;;;4.51;68.17;99919.81;1770731;81;21172;-77
2023/01/06 05:43:46;;;;;;;8.68;6.95;;;;;;;4.42;68.33;99908.81;1770578;81;21470;-77
2023/01/06 05:46:12;;;;;;;8.93;7.22;;;;;;;4.41;68.46;99906.69;1758667;79;21177;-77
2023/01/06 05:48:41;;;;;;;8.30;6.65;;;;;;;4.36;68.51;99913.17;1800490;79;20955;-77
2023/01/06 05:51:11;;;;;;;8.40;6.40;;;;;;;4.32;68.55;99914.68;1823596;78;21521;-77
2023/01/06 05:53:40;;;;;;;8.43;7.22;;;;;;;4.28;68.62;99915.36;1768980;80;21131;-77
2023/01/06 05:56:10;;;;;;;8.25;6.80;;;;;;;4.27;68.69;99925.66;1823361;78;20995;-77
2023/01/06 05:58:39;;;;;;;9.78;7.50;;;;;;;4.21;68.79;99929.52;1769058;81;21003;-76
2023/01/06 06:01:06;;;;;;;8.65;6.33;;;;;;;4.18;68.83;99933.14;1823415;78;20987;-76
2023/01/06 06:03:32;;;;;;;8.15;6.62;;;;;;;4.18;68.96;99960.90;1770476;80;21586;-77
2023/01/06 06:06:05;;;;;;;9.10;7.10;;;;;;;4.15;69.09;99957.39;1802785;79;21048;-77
2023/01/06 06:08:31;;;;;;;9.08;6.65;;;;;;;4.15;69.19;99967.96;1802852;79;20994;-76
2023/01/06 06:11:04;;;;;;;9.53;7.78;;;;;;;4.15;69.26;99968.76;1803080;79;20999;-77
2023/01/06 06:13:31;;;;;;;10.55;6.62;;;;;;;4.16;69.35;99976.97;1802333;79;20987;-77
2023/01/06 06:16:10;;;;;;;9.03;7.22;;;;;;;4.16;69.33;99971.68;1802738;79;21477;-77
2023/01/06 06:18:41;;;;;;;9.20;6.62;;;;;;;4.14;69.27;99991.44;1802767;79;21142;-77
2023/01/06 06:21:05;;;;;;;10.55;6.90;;;;;;;4.13;69.27;99999.09;1801454;79;21066;-78
2023/01/06 06:23:32;;;;;;;9.30;6.80;;;;;;;4.13;69.21;100009.14;1802399;79;20939;-76
2023/01/06 06:26:00;;;;;;;8.30;5.90;;;;;;;4.10;69.12;100016.20;1802955;79;21097;-78
2023/01/06 06:28:34;;;;;;;7.92;6.05;;;;;;;4.09;69.17;100027.02;1784176;79;21117;-78
2023/01/06 06:31:13;;;;;;;8.23;5.97;;;;;;;4.08;69.13;100028.02;1771322;81;21193;-77
2023/01/06 06:33:39;;;;;;;8.98;6.42;;;;;;;4.09;69.12;100041.55;1770808;81;21010;-77
2023/01/06 06:36:14;;;;;;;9.83;6.62;;;;;;;4.09;69.14;100042.88;1771208;81;21022;-78
2023/01/06 06:38:41;;;;;;;7.62;5.58;;;;;;;4.12;69.21;100054.31;1833671;78;20931;-77
2023/01/06 06:41:08;;;;;;;7.65;6.05;;;;;;;4.14;69.29;100056.19;1771281;80;20974;-78
2023/01/06 06:43:34;;;;;;;9.03;6.47;;;;;;;4.19;69.30;100062.42;1833493;78;21340;-77
2023/01/06 06:46:01;;;;;;;9.35;6.62;;;;;;;4.22;69.34;100068.58;1815967;78;21117;-77
2023/01/06 06:48:29;;;;;;;8.88;6.55;;;;;;;4.26;69.38;100068.13;1770877;81;21011;-77
2023/01/06 06:51:02;;;;;;;9.03;6.92;;;;;;;4.25;69.43;100075.26;1802896;79;21493;-77
2023/01/06 06:53:29;;;;;;;9.13;6.58;;;;;;;4.26;69.52;100080.83;1779408;79;21018;-78
2023/01/06 06:55:55;;;;;;;9.63;6.70;;;;;;;4.29;69.66;100089.62;1740324;82;21159;-77
2023/01/06 06:58:22;;;;;;;10.55;5.87;;;;;;;4.31;69.67;100090.22;1739948;82;21446;-77
2023/01/06 07:00:49;;;;;;;5.83;4.60;;;;;;;4.30;69.31;100093.88;1740443;82;20972;-77
2023/01/06 07:03:16;;;;;;;5.50;4.17;;;;;;;4.27;68.89;100104.09;1740275;82;21089;-78
2023/01/06 07:05:44;;;;;;;6.42;4.22;;;;;;;4.19;68.45;100102.59;1740457;82;20971;-76
2023/01/06 07:08:11;;;;;;;5.90;4.03;;;;;;;4.09;67.82;100116.35;1740029;82;23030;-77
2023/01/06 07:10:39;;;;;;;5.80;4.08;;;;;;;4.00;67.45;100133.55;1741151;81;21556;-78
2023/01/06 07:13:06;;;;;;;4.80;3.20;;;;;;;3.96;67.34;100142.44;1740168;82;21087;-77
2023/01/06 07:15:34;;;;;;;6.15;3.55;;;;;;;3.93;67.24;100139.44;1740187;82;21006;-78
2023/01/06 07:18:02;;;;;;;6.50;4.20;;;;;;;3.89;66.99;100152.29;1740212;82;21014;-77
2023/01/06 07:20:30;;;;;;;6.03;4.00;;;;;;;3.85;67.05;100157.73;1740108;82;21789;-77
2023/01/06 07:22:57;;;;;;;6.08;3.95;;;;;;;3.89;66.94;100170.78;1740023;82;21477;-78
2023/01/06 07:25:23;;;;;;;5.58;3.83;;;;;;;3.89;66.71;100172.11;1740514;82;21711;-78
2023/01/06 07:27:58;;;;;;;6.30;4.30;;;;;;;3.88;66.69;100186.35;1761709;81;21035;-78
2023/01/06 07:30:26;;;;;;;5.35;3.90;;;;;;;3.90;66.66;100192.20;1771118;80;21545;-77
2023/01/06 07:32:52;;;;;;;5.20;3.60;;;;;;;3.95;66.70;100204.25;1770622;81;21220;-77
2023/01/06 07:35:18;;;;;;;5.22;3.42;;;;;;;3.96;66.37;100197.92;1771247;80;21015;-77
2023/01/06 07:37:45;;;;;;;5.80;3.80;;;;;;;3.96;66.17;100222.23;1770616;81;20967;-77
2023/01/06 07:40:12;;;;;;;5.22;3.42;;;;;;;3.93;65.72;100215.55;1770838;81;21042;-78
2023/01/06 07:42:39;;;;;;;6.03;3.65;;;;;;;3.91;65.56;100236.08;1770670;81;21165;-78
2023/01/06 07:45:07;;;;;;;4.50;3.10;;;;;;;3.86;65.49;100245.20;1759227;81;21242;-78
2023/01/06 07:47:34;;;;;;;4.65;3.08;;;;;;;3.79;65.40;100258.20;1770788;81;21585;-78
2023/01/06 07:50:01;;;;;;;3.80;2.70;;;;;;;3.75;65.54;100263.92;1770709;81;21077;-78
2023/01/06 07:52:27;;;;;;;5.75;2.90;;;;;;;3.72;65.51;100266.19;1770956;81;21070;-78
2023/01/06 07:54:58;;;;;;;4.83;3.02;;;;;;;3.64;65.67;100280.47;1770637;81;21051;-77
2023/01/06 07:57:22;;;;;;;4.28;2.75;;;;;;;3.64;65.59;100282.30;1770310;80;21231;-77
2023/01/06 07:59:49;;;;;;;4.22;2.92;;;;;;;3.62;65.58;100286.98;1769883;81;21081;-77
2023/01/06 08:02:16;;;;;;;5.03;3.08;;;;;;;3.59;65.66;100296.17;1750950;81;21101;-78
2023/01/06 08:04:42;;;;;;;4.22;2.98;;;;;;;3.59;65.65;100300.14;1739888;82;21494;-77
2023/01/06 08:07:09;;;;;;;4.60;3.40;;;;;;;3.65;65.72;100309.84;1740090;82;21132;-78
2023/01/06 08:09:36;;;;;;;4.42;2.95;;;;;;;3.69;65.82;100316.30;1740108;82;21093;-77
2023/01/06 08:12:04;;;;;;;4.50;3.00;;;;;;;3.71;65.60;100325.30;1740075;82;21069;-77
2023/01/06 08:14:30;;;;;;;5.12;3.25;;;;;;;3.71;65.47;100331.91;1740027;82;21006;-77
2023/01/06 08:16:57;;;;;;;5.00;3.30;;;;;;;3.71;65.51;100345.12;1740739;82;21558;-77
2023/01/06 08:19:23;;;;;;;4.50;2.85;;;;;;;3.74;65.21;100353.94;1741248;81;21014;-78
2023/01/06 08:21:50;;;;;;;4.00;2.70;;;;;;;3.71;64.84;100345.92;1740421;82;22216;-78
2023/01/06 08:24:16;;;;;;;4.90;3.35;;;;;;;3.70;64.68;100368.60;1739988;82;21173;-78
2023/01/06 08:26:43;;;;;;;5.55;3.50;;;;;;;3.72;64.61;100379.77;1764893;81;21514;-77
2023/01/06 08:29:09;;;;;;;5.50;4.10;;;;;;;3.70;64.58;100381.30;1770653;81;20979;-78
2023/01/06 08:31:36;;;;;;;6.33;4.20;;;;;;;3.71;64.88;100391.34;1771011;81;21596;-77
2023/01/06 08:34:04;;;;;;;5.55;4.40;;;;;;;3.69;65.54;100386.80;1770592;80;21370;-78
2023/01/06 08:36:31;;;;;;;6.37;4.40;;;;;;;3.60;66.13;100410.02;1769794;81;21019;-77
2023/01/06 08:38:58;;;;;;;6.53;4.40;;;;;;;3.51;66.60;100397.58;1770666;81;21437;-78
2023/01/06 08:41:25;;;;;;;6.58;4.70;;;;;;;3.42;67.04;100401.53;1770950;81;21003;-78
2023/01/06 08:43:53;;;;;;;6.10;4.37;;;;;;;3.38;67.33;100404.79;1767725;80;21465;-77
2023/01/06 08:46:20;;;;;;;6.17;4.40;;;;;;;3.37;67.43;100400.55;1711389;82;22007;-77
2023/01/06 08:48:48;;;;;;;5.90;4.20;;;;;;;3.35;67.55;100401.25;1739991;82;21086;-77
2023/01/06 08:51:18;;;;;;;6.35;4.28;;;;;;;3.30;67.69;100405.86;1740271;82;21070;-77
2023/01/06 08:53:44;;;;;;;6.35;4.47;;;;;;;3.27;67.86;100406.28;1765671;81;21046;-76
2023/01/06 08:56:22;;;;;;;5.60;3.80;;;;;;;3.25;68.00;100417.55;1770731;81;21015;-77
2023/01/06 08:58:56;;;;;;;4.97;3.42;;;;;;;3.24;67.96;100418.59;1769691;80;21358;-77
2023/01/06 09:01:30;;;;;;;5.20;2.90;;;;;;;3.19;67.55;100430.27;1770938;81;20984;-78
2023/01/06 09:03:59;;;;;;;5.12;3.35;;;;;;;3.13;67.01;100423.23;1771507;80;20995;-78
2023/01/06 09:06:26;;;;;;;5.22;3.50;;;;;;;3.11;66.59;100427.37;1771238;80;21035;-78
2023/01/06 09:08:53;;;;;;;5.50;3.52;;;;;;;3.14;66.53;100433.55;1769385;81;20947;-78
2023/01/06 09:11:19;;;;;;;5.60;3.45;;;;;;;3.16;66.33;100431.53;1770888;81;21258;-78
2023/01/06 09:13:46;;;;;;;5.08;3.60;;;;;;;3.13;65.66;100423.23;1770679;81;20959;-78
2023/01/06 09:16:13;;;;;;;6.30;4.00;;;;;;;3.09;65.36;100445.75;1770845;81;20967;-78
2023/01/06 09:18:39;;;;;;;7.37;5.50;;;;;;;3.09;65.37;100428.09;1770667;81;21098;-78
2023/01/06 09:21:06;;;;;;;9.80;7.37;;;;;;;3.07;65.42;100451.26;1770822;81;21584;-78
2023/01/06 09:23:33;;;;;;;9.05;7.30;;;;;;;3.04;65.42;100455.12;1770685;81;21231;-79
2023/01/06 09:25:59;;;;;;;12.28;9.38;;;;;;;3.00;65.38;100454.44;1743409;81;21600;-78
2023/01/06 09:28:26;;;;;;;11.25;9.45;;;;;;;2.95;65.26;100460.84;1739916;82;21074;-78
2023/01/06 09:30:53;;;;;;;10.00;8.20;;;;;;;2.91;65.23;100461.77;1740611;82;21098;-78
2023/01/06 09:33:20;;;;;;;10.60;8.35;;;;;;;2.82;65.12;100477.00;1740002;82;21006;-77
2023/01/06 09:35:47;;;;;;;9.88;7.50;;;;;;;2.76;65.13;100467.80;1740349;82;21335;-78
2023/01/06 09:38:13;;;;;;;9.23;7.28;;;;;;;2.73;65.11;100466.89;1740127;82;20963;-78
2023/01/06 09:41:13;;;;;;;10.90;7.92;;;;;;;2.68;65.05;100472.80;1740101;82;20983;-78
2023/01/06 09:43:50;;;;;;;8.50;6.75;;;;;;;2.64;65.05;100474.75;1741699;79;20979;-77
2023/01/06 09:46:22;;;;;;;9.60;7.08;;;;;;;2.62;65.15;100480.72;1770817;81;21045;-77
2023/01/06 09:49:09;;;;;;;8.03;6.28;;;;;;;2.56;65.09;100486.30;1770468;79;21154;-79
2023/01/06 09:51:36;;;;;;;9.50;7.03;;;;;;;2.47;64.89;100488.84;1770692;81;21003;-77
2023/01/06 09:54:13;;;;;;;12.33;8.38;;;;;;;2.42;64.89;100488.67;1770590;81;21027;-78
2023/01/06 09:56:42;;;;;;;11.18;8.38;;;;;;;2.36;64.81;100486.33;1770955;81;21101;-77
2023/01/06 09:59:29;;;;;;;10.75;8.60;;;;;;;2.35;64.93;100500.02;1770429;81;21030;-77
2023/01/06 10:01:58;;;;;;;12.05;9.08;;;;;;;2.34;64.95;100496.28;1769687;81;21248;-78
2023/01/06 10:04:28;;;;;;;12.47;9.23;;;;;;;2.33;64.99;100494.13;1770639;81;21051;-77
2023/01/06 10:07:30;;;;;;;10.48;8.55;;;;;;;2.32;65.11;100498.30;1770849;81;21094;-77
2023/01/06 10:10:15;;;;;;;12.15;8.75;;;;;;;2.34;65.11;100502.37;1770691;81;20999;-77
2023/01/06 10:13:23;;;;;;;13.60;9.68;;;;;;;2.31;64.90;100513.31;1770767;81;21054;-78
2023/01/06 10:16:07;;;;;;;11.78;8.80;;;;;;;2.27;64.85;100525.77;1770649;81;21801;-78
2023/01/06 10:18:58;;;;;;;13.38;9.65;;;;;;;2.20;64.84;100531.55;1769279;81;21003;-77
2023/01/06 10:21:36;;;;;;;12.55;9.78;;;;;;;2.17;64.98;100542.48;1771201;81;21121;-77
2023/01/06 10:24:29;;;;;;;13.03;9.60;;;;;;;2.16;65.08;100543.00;1750504;81;21054;-77
2023/01/06 10:26:58;;;;;;;13.43;9.65;;;;;;;2.13;64.58;100540.77;1801394;79;21031;-76
2023/01/06 10:29:30;;;;;;;11.55;8.85;;;;;;;2.02;64.22;100555.35;1800738;79;21807;-76
2023/01/06 10:31:56;;;;;;;11.47;8.17;;;;;;;2.06;64.00;100551.30;1802371;79;21066;-77
2023/01/06 10:34:25;;;;;;;10.90;7.92;;;;;;;2.08;63.62;100559.02;1800519;79;21857;-75
2023/01/06 10:37:02;;;;;;;10.78;7.72;;;;;;;2.06;63.20;100573.69;1769417;81;21448;-77
2023/01/06 10:39:31;;;;;;;12.30;8.53;;;;;;;2.06;62.99;100580.79;1823269;78;20939;-77
2023/01/06 10:45:14;;;;;;;11.95;8.35;;;;;;;2.05;62.77;100579.98;1774436;80;20943;-76
2023/01/06 10:47:42;;;;;;;11.25;8.03;;;;;;;2.03;62.55;100589.89;1798182;79;21010;-77
2023/01/06 10:50:14;;;;;;;9.10;6.03;;;;;;;2.05;62.56;100589.72;1798777;79;21140;-78
2023/01/06 10:52:42;;;;;;;6.65;4.58;;;;;;;2.09;62.26;100598.32;1813295;78;21522;-77
2023/01/06 10:55:25;;;;;;;6.87;5.10;;;;;;;2.15;61.82;100605.94;1815882;79;21076;-77
2023/01/06 10:57:53;;;;;;;7.17;5.08;;;;;;;2.15;61.28;100598.55;1815733;79;20992;-77
2023/01/06 11:00:23;;;;;;;6.45;4.28;;;;;;;2.08;60.66;100601.98;1815969;79;21408;-77
2023/01/06 11:02:56;;;;;;;6.53;4.30;;;;;;;2.03;60.49;100621.52;1815729;79;21031;-78
2023/01/06 11:05:28;;;;;;;6.97;4.35;;;;;;;2.02;60.12;100625.16;1815395;79;20932;-78
2023/01/06 11:07:59;;;;;;;7.00;4.28;;;;;;;1.99;59.99;100634.78;1765460;81;21148;-78
2023/01/06 11:10:43;;;;;;;7.05;4.85;;;;;;;1.97;60.02;100631.52;1770337;81;21035;-78
2023/01/06 11:13:30;;;;;;;7.10;4.90;;;;;;;1.94;60.12;100641.16;1753728;80;21665;-77
2023/01/06 11:15:59;;;;;;;6.28;4.70;;;;;;;1.96;60.49;100630.41;1834021;78;21082;-78
2023/01/06 11:18:31;;;;;;;6.05;4.10;;;;;;;1.97;60.77;100635.98;1770870;81;21026;-78
2023/01/06 11:21:15;;;;;;;4.92;3.37;;;;;;;2.01;60.99;100633.28;1833835;78;21417;-78
2023/01/06 11:23:44;;;;;;;5.25;3.55;;;;;;;2.03;61.09;100641.78;1770892;81;20959;-79
2023/01/06 11:26:22;;;;;;;4.37;2.87;;;;;;;2.04;60.73;100645.55;1814504;78;20991;-78
2023/01/06 11:28:56;;;;;;;4.25;2.22;;;;;;;1.98;60.49;100668.73;1820761;78;20995;-78
2023/01/06 11:31:25;;;;;;;4.45;2.60;;;;;;;1.87;60.20;100635.03;1820798;78;20932;-78
2023/01/06 11:33:58;;;;;;;3.87;2.40;;;;;;;1.79;60.03;100677.36;1820543;78;22186;-77
2023/01/06 11:36:27;;;;;;;4.00;2.50;;;;;;;1.77;60.07;100655.16;1820779;78;21462;-77
2023/01/06 11:39:05;;;;;;;4.78;2.85;;;;;;;1.76;60.25;100654.86;1820775;78;21487;-76
2023/01/06 11:41:36;;;;;;;4.60;2.80;;;;;;;1.80;60.10;100656.09;1794948;78;20924;-78
2023/01/06 11:44:32;;;;;;;5.95;4.00;;;;;;;1.79;60.01;100668.14;1829022;77;21092;-78
2023/01/06 11:47:18;;;;;;;6.15;4.12;;;;;;;1.80;60.10;100668.45;1833955;78;21845;-78
2023/01/06 11:49:53;;;;;;;6.05;3.98;;;;;;;1.84;60.21;100678.89;1834153;78;20997;-78
2023/01/06 11:52:25;;;;;;;5.15;3.08;;;;;;;1.82;60.16;100692.77;1834153;78;21505;-79
2023/01/06 12:06:41;;;;;;;4.07;2.87;;;;;;;2.04;59.35;100692.97;1798871;78;22061;-73
2023/01/06 12:09:23;;;;;;;4.80;3.37;;;;;;;1.91;59.20;100692.08;1772453;81;20926;-73
2023/01/06 12:11:52;;;;;;;4.65;2.70;;;;;;;1.77;59.39;100700.44;1769070;81;21208;-72
2023/01/06 12:14:26;;;;;;;3.77;2.30;;;;;;;1.68;59.68;100696.33;1769335;79;21606;-71